<?xml version="1.0" encoding="UTF-8" standalone="no" ?>
<gpx xmlns="http://www.topografix.com/GPX/1/1" xmlns:xsi="http://www.w3.org/2001/XMLSchema-instance" xsi:schemaLocation="http://www.topografix.com/GPX/1/1 http://www.topografix.com/GPX/1/1/gpx.xsd" version="1.1" creator="VisuGPX - https://www.visugpx.com">
  <metadata>
    <name>Du Col des Lentisques au Pic de l'Ours et d'Aurelle</name>
  </metadata>
  <trk>
    <name><![CDATA[Du Col des Lentisques au Pic de l'Ours et d'Aurelle]]></name>
    <extensions>
      <line xmlns="http://www.topografix.com/GPX/gpx_style/0/2">
        <color>152bd1</color>
        <width>5</width>
        <dasharray>5</dasharray>
      </line>
    </extensions>
    <trkseg>
      <trkpt lat="43.47008" lon="6.90874">
        <ele>262</ele>
        <time>2021-04-11T13:40:09+02:00</time>
      </trkpt>
      <trkpt lat="43.47008" lon="6.90874">
        <ele>262</ele>
        <time>2021-04-11T13:40:09+02:00</time>
      </trkpt>
      <trkpt lat="43.47008" lon="6.90874">
        <ele>262</ele>
        <time>2021-04-11T13:40:09+02:00</time>
      </trkpt>
      <trkpt lat="43.47078" lon="6.90802">
        <ele>275</ele>
        <time>2021-04-11T13:40:14+02:00</time>
      </trkpt>
      <trkpt lat="43.47138" lon="6.9074">
        <ele>287</ele>
        <time>2021-04-11T13:40:19+02:00</time>
      </trkpt>
      <trkpt lat="43.4712" lon="6.90841">
        <ele>299</ele>
        <time>2021-04-11T13:40:24+02:00</time>
      </trkpt>
      <trkpt lat="43.4713" lon="6.90912">
        <ele>307</ele>
        <time>2021-04-11T13:40:29+02:00</time>
      </trkpt>
      <trkpt lat="43.47161" lon="6.90953">
        <ele>315</ele>
        <time>2021-04-11T13:40:34+02:00</time>
      </trkpt>
      <trkpt lat="43.472" lon="6.90953">
        <ele>325</ele>
        <time>2021-04-11T13:40:39+02:00</time>
      </trkpt>
      <trkpt lat="43.47255" lon="6.90915">
        <ele>338</ele>
        <time>2021-04-11T13:40:44+02:00</time>
      </trkpt>
      <trkpt lat="43.47345" lon="6.90886">
        <ele>355</ele>
        <time>2021-04-11T13:40:49+02:00</time>
      </trkpt>
      <trkpt lat="43.4736" lon="6.90886">
        <ele>357</ele>
        <time>2021-04-11T13:40:54+02:00</time>
      </trkpt>
      <trkpt lat="43.47299" lon="6.90847">
        <ele>358</ele>
        <time>2021-04-11T13:40:59+02:00</time>
      </trkpt>
      <trkpt lat="43.47384" lon="6.90852">
        <ele>374</ele>
        <time>2021-04-11T13:41:04+02:00</time>
      </trkpt>
      <trkpt lat="43.47438" lon="6.90881">
        <ele>388</ele>
        <time>2021-04-11T13:41:09+02:00</time>
      </trkpt>
      <trkpt lat="43.47485" lon="6.90947">
        <ele>394</ele>
        <time>2021-04-11T13:41:14+02:00</time>
      </trkpt>
      <trkpt lat="43.47502" lon="6.90986">
        <ele>398</ele>
        <time>2021-04-11T13:41:19+02:00</time>
      </trkpt>
      <trkpt lat="43.47499" lon="6.90936">
        <ele>407</ele>
        <time>2021-04-11T13:41:24+02:00</time>
      </trkpt>
      <trkpt lat="43.47528" lon="6.90981">
        <ele>416</ele>
        <time>2021-04-11T13:41:29+02:00</time>
      </trkpt>
      <trkpt lat="43.47516" lon="6.90896">
        <ele>426</ele>
        <time>2021-04-11T13:41:34+02:00</time>
      </trkpt>
      <trkpt lat="43.47495" lon="6.90828">
        <ele>433</ele>
        <time>2021-04-11T13:41:39+02:00</time>
      </trkpt>
      <trkpt lat="43.47497" lon="6.9081">
        <ele>433</ele>
        <time>2021-04-11T13:41:44+02:00</time>
      </trkpt>
      <trkpt lat="43.47534" lon="6.90755">
        <ele>439</ele>
        <time>2021-04-11T13:41:49+02:00</time>
      </trkpt>
      <trkpt lat="43.47555" lon="6.90717">
        <ele>445</ele>
        <time>2021-04-11T13:41:54+02:00</time>
      </trkpt>
      <trkpt lat="43.47576" lon="6.90644">
        <ele>455</ele>
        <time>2021-04-11T13:41:59+02:00</time>
      </trkpt>
      <trkpt lat="43.47597" lon="6.90646">
        <ele>466</ele>
        <time>2021-04-11T13:42:04+02:00</time>
      </trkpt>
      <trkpt lat="43.47608" lon="6.90685">
        <ele>466</ele>
        <time>2021-04-11T13:42:09+02:00</time>
      </trkpt>
      <trkpt lat="43.47645" lon="6.90592">
        <ele>477</ele>
        <time>2021-04-11T13:42:14+02:00</time>
      </trkpt>
      <trkpt lat="43.47685" lon="6.90527">
        <ele>474</ele>
        <time>2021-04-11T13:42:19+02:00</time>
      </trkpt>
      <trkpt lat="43.47688" lon="6.90513">
        <ele>472</ele>
        <time>2021-04-11T13:42:24+02:00</time>
      </trkpt>
      <trkpt lat="43.47697" lon="6.90511">
        <ele>471</ele>
        <time>2021-04-11T13:42:29+02:00</time>
      </trkpt>
      <trkpt lat="43.47664" lon="6.90493">
        <ele>469</ele>
        <time>2021-04-11T13:42:34+02:00</time>
      </trkpt>
      <trkpt lat="43.47713" lon="6.90463">
        <ele>456</ele>
        <time>2021-04-11T13:42:39+02:00</time>
      </trkpt>
      <trkpt lat="43.4775" lon="6.90463">
        <ele>452</ele>
        <time>2021-04-11T13:42:44+02:00</time>
      </trkpt>
      <trkpt lat="43.47759" lon="6.9047">
        <ele>451</ele>
        <time>2021-04-11T13:42:49+02:00</time>
      </trkpt>
      <trkpt lat="43.47765" lon="6.90495">
        <ele>452</ele>
        <time>2021-04-11T13:42:54+02:00</time>
      </trkpt>
      <trkpt lat="43.47762" lon="6.90547">
        <ele>444</ele>
        <time>2021-04-11T13:42:59+02:00</time>
      </trkpt>
      <trkpt lat="43.4779" lon="6.90491">
        <ele>437</ele>
        <time>2021-04-11T13:43:04+02:00</time>
      </trkpt>
      <trkpt lat="43.47798" lon="6.90453">
        <ele>430</ele>
        <time>2021-04-11T13:43:09+02:00</time>
      </trkpt>
      <trkpt lat="43.47795" lon="6.90417">
        <ele>422</ele>
        <time>2021-04-11T13:43:14+02:00</time>
      </trkpt>
      <trkpt lat="43.47808" lon="6.90419">
        <ele>419</ele>
        <time>2021-04-11T13:43:19+02:00</time>
      </trkpt>
      <trkpt lat="43.47819" lon="6.90441">
        <ele>419</ele>
        <time>2021-04-11T13:43:24+02:00</time>
      </trkpt>
      <trkpt lat="43.47821" lon="6.90407">
        <ele>413</ele>
        <time>2021-04-11T13:43:29+02:00</time>
      </trkpt>
      <trkpt lat="43.47836" lon="6.90458">
        <ele>411</ele>
        <time>2021-04-11T13:43:34+02:00</time>
      </trkpt>
      <trkpt lat="43.4785" lon="6.9039">
        <ele>402</ele>
        <time>2021-04-11T13:43:39+02:00</time>
      </trkpt>
      <trkpt lat="43.47857" lon="6.90399">
        <ele>400</ele>
        <time>2021-04-11T13:43:44+02:00</time>
      </trkpt>
      <trkpt lat="43.47883" lon="6.90358">
        <ele>391</ele>
        <time>2021-04-11T13:43:49+02:00</time>
      </trkpt>
      <trkpt lat="43.47934" lon="6.90336">
        <ele>388</ele>
        <time>2021-04-11T13:43:54+02:00</time>
      </trkpt>
      <trkpt lat="43.47924" lon="6.90313">
        <ele>383</ele>
        <time>2021-04-11T13:43:59+02:00</time>
      </trkpt>
      <trkpt lat="43.47893" lon="6.90311">
        <ele>379</ele>
        <time>2021-04-11T13:44:04+02:00</time>
      </trkpt>
      <trkpt lat="43.47874" lon="6.90304">
        <ele>378</ele>
        <time>2021-04-11T13:44:09+02:00</time>
      </trkpt>
      <trkpt lat="43.47848" lon="6.90289">
        <ele>372</ele>
        <time>2021-04-11T13:44:14+02:00</time>
      </trkpt>
      <trkpt lat="43.47781" lon="6.90302">
        <ele>372</ele>
        <time>2021-04-11T13:44:19+02:00</time>
      </trkpt>
      <trkpt lat="43.47737" lon="6.90293">
        <ele>372</ele>
        <time>2021-04-11T13:44:24+02:00</time>
      </trkpt>
      <trkpt lat="43.47724" lon="6.9028">
        <ele>372</ele>
        <time>2021-04-11T13:44:29+02:00</time>
      </trkpt>
      <trkpt lat="43.47719" lon="6.90255">
        <ele>367</ele>
        <time>2021-04-11T13:44:34+02:00</time>
      </trkpt>
      <trkpt lat="43.47707" lon="6.90232">
        <ele>368</ele>
        <time>2021-04-11T13:44:39+02:00</time>
      </trkpt>
      <trkpt lat="43.47703" lon="6.90215">
        <ele>367</ele>
        <time>2021-04-11T13:44:44+02:00</time>
      </trkpt>
      <trkpt lat="43.47703" lon="6.90188">
        <ele>361</ele>
        <time>2021-04-11T13:44:49+02:00</time>
      </trkpt>
      <trkpt lat="43.47653" lon="6.90098">
        <ele>353</ele>
        <time>2021-04-11T13:44:54+02:00</time>
      </trkpt>
      <trkpt lat="43.47636" lon="6.90055">
        <ele>352</ele>
        <time>2021-04-11T13:44:59+02:00</time>
      </trkpt>
      <trkpt lat="43.47628" lon="6.89985">
        <ele>349</ele>
        <time>2021-04-11T13:45:04+02:00</time>
      </trkpt>
      <trkpt lat="43.47636" lon="6.89921">
        <ele>343</ele>
        <time>2021-04-11T13:45:09+02:00</time>
      </trkpt>
      <trkpt lat="43.47654" lon="6.89876">
        <ele>334</ele>
        <time>2021-04-11T13:45:14+02:00</time>
      </trkpt>
      <trkpt lat="43.47667" lon="6.89965">
        <ele>320</ele>
        <time>2021-04-11T13:45:19+02:00</time>
      </trkpt>
      <trkpt lat="43.47706" lon="6.90074">
        <ele>317</ele>
        <time>2021-04-11T13:45:24+02:00</time>
      </trkpt>
      <trkpt lat="43.47704" lon="6.90001">
        <ele>301</ele>
        <time>2021-04-11T13:45:29+02:00</time>
      </trkpt>
      <trkpt lat="43.47717" lon="6.89927">
        <ele>287</ele>
        <time>2021-04-11T13:45:34+02:00</time>
      </trkpt>
      <trkpt lat="43.47744" lon="6.90057">
        <ele>290</ele>
        <time>2021-04-11T13:45:39+02:00</time>
      </trkpt>
      <trkpt lat="43.47748" lon="6.90046">
        <ele>285</ele>
        <time>2021-04-11T13:45:44+02:00</time>
      </trkpt>
      <trkpt lat="43.47764" lon="6.90055">
        <ele>274</ele>
        <time>2021-04-11T13:45:49+02:00</time>
      </trkpt>
      <trkpt lat="43.47774" lon="6.90089">
        <ele>274</ele>
        <time>2021-04-11T13:45:54+02:00</time>
      </trkpt>
      <trkpt lat="43.47785" lon="6.90085">
        <ele>269</ele>
        <time>2021-04-11T13:45:59+02:00</time>
      </trkpt>
      <trkpt lat="43.47811" lon="6.90044">
        <ele>249</ele>
        <time>2021-04-11T13:46:04+02:00</time>
      </trkpt>
      <trkpt lat="43.47843" lon="6.90029">
        <ele>237</ele>
        <time>2021-04-11T13:46:09+02:00</time>
      </trkpt>
      <trkpt lat="43.47867" lon="6.90033">
        <ele>242</ele>
        <time>2021-04-11T13:46:14+02:00</time>
      </trkpt>
      <trkpt lat="43.47923" lon="6.89971">
        <ele>227</ele>
        <time>2021-04-11T13:46:19+02:00</time>
      </trkpt>
      <trkpt lat="43.47989" lon="6.89872">
        <ele>209</ele>
        <time>2021-04-11T13:46:24+02:00</time>
      </trkpt>
      <trkpt lat="43.48005" lon="6.89817">
        <ele>197</ele>
        <time>2021-04-11T13:46:29+02:00</time>
      </trkpt>
      <trkpt lat="43.48021" lon="6.89786">
        <ele>194</ele>
        <time>2021-04-11T13:46:34+02:00</time>
      </trkpt>
      <trkpt lat="43.48058" lon="6.89695">
        <ele>190</ele>
        <time>2021-04-11T13:46:39+02:00</time>
      </trkpt>
      <trkpt lat="43.48063" lon="6.89633">
        <ele>178</ele>
        <time>2021-04-11T13:46:44+02:00</time>
      </trkpt>
      <trkpt lat="43.47938" lon="6.89796">
        <ele>163</ele>
        <time>2021-04-11T13:46:49+02:00</time>
      </trkpt>
      <trkpt lat="43.47931" lon="6.89797">
        <ele>165</ele>
        <time>2021-04-11T13:46:54+02:00</time>
      </trkpt>
      <trkpt lat="43.47941" lon="6.89718">
        <ele>153</ele>
        <time>2021-04-11T13:46:59+02:00</time>
      </trkpt>
      <trkpt lat="43.47977" lon="6.89607">
        <ele>134</ele>
        <time>2021-04-11T13:47:04+02:00</time>
      </trkpt>
      <trkpt lat="43.47997" lon="6.89521">
        <ele>120</ele>
        <time>2021-04-11T13:47:09+02:00</time>
      </trkpt>
      <trkpt lat="43.47995" lon="6.89405">
        <ele>111</ele>
        <time>2021-04-11T13:47:14+02:00</time>
      </trkpt>
      <trkpt lat="43.48004" lon="6.89376">
        <ele>108</ele>
        <time>2021-04-11T13:47:19+02:00</time>
      </trkpt>
      <trkpt lat="43.48009" lon="6.89326">
        <ele>107</ele>
        <time>2021-04-11T13:47:24+02:00</time>
      </trkpt>
      <trkpt lat="43.47997" lon="6.89073">
        <ele>93</ele>
        <time>2021-04-11T13:47:29+02:00</time>
      </trkpt>
      <trkpt lat="43.47977" lon="6.89018">
        <ele>91</ele>
        <time>2021-04-11T13:47:34+02:00</time>
      </trkpt>
      <trkpt lat="43.47922" lon="6.88973">
        <ele>88</ele>
        <time>2021-04-11T13:47:39+02:00</time>
      </trkpt>
      <trkpt lat="43.47896" lon="6.88913">
        <ele>81</ele>
        <time>2021-04-11T13:47:44+02:00</time>
      </trkpt>
      <trkpt lat="43.47866" lon="6.88875">
        <ele>80</ele>
        <time>2021-04-11T13:47:49+02:00</time>
      </trkpt>
      <trkpt lat="43.47848" lon="6.88821">
        <ele>82</ele>
        <time>2021-04-11T13:47:54+02:00</time>
      </trkpt>
      <trkpt lat="43.47854" lon="6.88788">
        <ele>77</ele>
        <time>2021-04-11T13:47:59+02:00</time>
      </trkpt>
      <trkpt lat="43.47875" lon="6.88757">
        <ele>73</ele>
        <time>2021-04-11T13:48:04+02:00</time>
      </trkpt>
      <trkpt lat="43.47878" lon="6.88726">
        <ele>71</ele>
        <time>2021-04-11T13:48:09+02:00</time>
      </trkpt>
      <trkpt lat="43.47908" lon="6.88703">
        <ele>73</ele>
        <time>2021-04-11T13:48:14+02:00</time>
      </trkpt>
      <trkpt lat="43.47889" lon="6.88646">
        <ele>72</ele>
        <time>2021-04-11T13:48:19+02:00</time>
      </trkpt>
      <trkpt lat="43.47895" lon="6.88613">
        <ele>72</ele>
        <time>2021-04-11T13:48:24+02:00</time>
      </trkpt>
      <trkpt lat="43.47929" lon="6.88582">
        <ele>73</ele>
        <time>2021-04-11T13:48:29+02:00</time>
      </trkpt>
      <trkpt lat="43.47932" lon="6.88571">
        <ele>75</ele>
        <time>2021-04-11T13:48:34+02:00</time>
      </trkpt>
      <trkpt lat="43.4789" lon="6.88561">
        <ele>78</ele>
        <time>2021-04-11T13:48:39+02:00</time>
      </trkpt>
      <trkpt lat="43.47858" lon="6.88574">
        <ele>79</ele>
        <time>2021-04-11T13:48:44+02:00</time>
      </trkpt>
      <trkpt lat="43.47839" lon="6.88587">
        <ele>79</ele>
        <time>2021-04-11T13:48:49+02:00</time>
      </trkpt>
      <trkpt lat="43.47807" lon="6.88587">
        <ele>78</ele>
        <time>2021-04-11T13:48:54+02:00</time>
      </trkpt>
      <trkpt lat="43.4778" lon="6.88568">
        <ele>78</ele>
        <time>2021-04-11T13:48:59+02:00</time>
      </trkpt>
      <trkpt lat="43.47762" lon="6.88545">
        <ele>78</ele>
        <time>2021-04-11T13:49:04+02:00</time>
      </trkpt>
      <trkpt lat="43.47751" lon="6.88513">
        <ele>79</ele>
        <time>2021-04-11T13:49:09+02:00</time>
      </trkpt>
      <trkpt lat="43.47752" lon="6.88481">
        <ele>85</ele>
        <time>2021-04-11T13:49:14+02:00</time>
      </trkpt>
      <trkpt lat="43.47574" lon="6.88454">
        <ele>67</ele>
        <time>2021-04-11T13:49:19+02:00</time>
      </trkpt>
      <trkpt lat="43.47526" lon="6.88433">
        <ele>66</ele>
        <time>2021-04-11T13:49:24+02:00</time>
      </trkpt>
      <trkpt lat="43.47476" lon="6.88435">
        <ele>68</ele>
        <time>2021-04-11T13:49:29+02:00</time>
      </trkpt>
      <trkpt lat="43.47467" lon="6.88471">
        <ele>61</ele>
        <time>2021-04-11T13:49:34+02:00</time>
      </trkpt>
      <trkpt lat="43.47443" lon="6.88482">
        <ele>61</ele>
        <time>2021-04-11T13:49:39+02:00</time>
      </trkpt>
      <trkpt lat="43.47423" lon="6.88474">
        <ele>60</ele>
        <time>2021-04-11T13:49:44+02:00</time>
      </trkpt>
      <trkpt lat="43.47402" lon="6.88438">
        <ele>59</ele>
        <time>2021-04-11T13:49:49+02:00</time>
      </trkpt>
      <trkpt lat="43.47386" lon="6.88376">
        <ele>54</ele>
        <time>2021-04-11T13:49:54+02:00</time>
      </trkpt>
      <trkpt lat="43.47401" lon="6.88234">
        <ele>55</ele>
        <time>2021-04-11T13:49:59+02:00</time>
      </trkpt>
      <trkpt lat="43.4737" lon="6.88164">
        <ele>53</ele>
        <time>2021-04-11T13:50:04+02:00</time>
      </trkpt>
      <trkpt lat="43.47366" lon="6.88176">
        <ele>55</ele>
        <time>2021-04-11T13:50:09+02:00</time>
      </trkpt>
      <trkpt lat="43.4737" lon="6.88236">
        <ele>56</ele>
        <time>2021-04-11T13:50:14+02:00</time>
      </trkpt>
      <trkpt lat="43.47344" lon="6.88397">
        <ele>53</ele>
        <time>2021-04-11T13:50:19+02:00</time>
      </trkpt>
      <trkpt lat="43.47328" lon="6.88423">
        <ele>56</ele>
        <time>2021-04-11T13:50:24+02:00</time>
      </trkpt>
      <trkpt lat="43.47302" lon="6.88432">
        <ele>60</ele>
        <time>2021-04-11T13:50:29+02:00</time>
      </trkpt>
      <trkpt lat="43.47288" lon="6.88441">
        <ele>61</ele>
        <time>2021-04-11T13:50:34+02:00</time>
      </trkpt>
      <trkpt lat="43.47265" lon="6.88464">
        <ele>63</ele>
        <time>2021-04-11T13:50:39+02:00</time>
      </trkpt>
      <trkpt lat="43.4724" lon="6.88503">
        <ele>64</ele>
        <time>2021-04-11T13:50:44+02:00</time>
      </trkpt>
      <trkpt lat="43.4722" lon="6.88544">
        <ele>65</ele>
        <time>2021-04-11T13:50:49+02:00</time>
      </trkpt>
      <trkpt lat="43.47203" lon="6.88586">
        <ele>69</ele>
        <time>2021-04-11T13:50:54+02:00</time>
      </trkpt>
      <trkpt lat="43.47184" lon="6.88621">
        <ele>74</ele>
        <time>2021-04-11T13:50:59+02:00</time>
      </trkpt>
      <trkpt lat="43.47162" lon="6.8867">
        <ele>77</ele>
        <time>2021-04-11T13:51:04+02:00</time>
      </trkpt>
      <trkpt lat="43.47137" lon="6.88707">
        <ele>84</ele>
        <time>2021-04-11T13:51:09+02:00</time>
      </trkpt>
      <trkpt lat="43.4712" lon="6.88754">
        <ele>83</ele>
        <time>2021-04-11T13:51:14+02:00</time>
      </trkpt>
      <trkpt lat="43.47097" lon="6.88797">
        <ele>90</ele>
        <time>2021-04-11T13:51:19+02:00</time>
      </trkpt>
      <trkpt lat="43.47072" lon="6.88857">
        <ele>96</ele>
        <time>2021-04-11T13:51:24+02:00</time>
      </trkpt>
      <trkpt lat="43.47053" lon="6.88904">
        <ele>104</ele>
        <time>2021-04-11T13:51:29+02:00</time>
      </trkpt>
      <trkpt lat="43.47038" lon="6.88947">
        <ele>111</ele>
        <time>2021-04-11T13:51:34+02:00</time>
      </trkpt>
      <trkpt lat="43.47028" lon="6.89009">
        <ele>118</ele>
        <time>2021-04-11T13:51:39+02:00</time>
      </trkpt>
      <trkpt lat="43.47025" lon="6.89069">
        <ele>116</ele>
        <time>2021-04-11T13:51:44+02:00</time>
      </trkpt>
      <trkpt lat="43.46999" lon="6.89101">
        <ele>126</ele>
        <time>2021-04-11T13:51:49+02:00</time>
      </trkpt>
      <trkpt lat="43.4698" lon="6.89155">
        <ele>136</ele>
        <time>2021-04-11T13:51:54+02:00</time>
      </trkpt>
      <trkpt lat="43.46983" lon="6.89213">
        <ele>137</ele>
        <time>2021-04-11T13:51:59+02:00</time>
      </trkpt>
      <trkpt lat="43.46982" lon="6.89271">
        <ele>135</ele>
        <time>2021-04-11T13:52:04+02:00</time>
      </trkpt>
      <trkpt lat="43.46968" lon="6.89327">
        <ele>138</ele>
        <time>2021-04-11T13:52:09+02:00</time>
      </trkpt>
      <trkpt lat="43.46952" lon="6.89376">
        <ele>138</ele>
        <time>2021-04-11T13:52:14+02:00</time>
      </trkpt>
      <trkpt lat="43.46924" lon="6.8941">
        <ele>149</ele>
        <time>2021-04-11T13:52:19+02:00</time>
      </trkpt>
      <trkpt lat="43.46908" lon="6.89453">
        <ele>148</ele>
        <time>2021-04-11T13:52:24+02:00</time>
      </trkpt>
      <trkpt lat="43.46884" lon="6.89507">
        <ele>154</ele>
        <time>2021-04-11T13:52:29+02:00</time>
      </trkpt>
      <trkpt lat="43.46863" lon="6.8955">
        <ele>160</ele>
        <time>2021-04-11T13:52:34+02:00</time>
      </trkpt>
      <trkpt lat="43.46846" lon="6.89591">
        <ele>164</ele>
        <time>2021-04-11T13:52:39+02:00</time>
      </trkpt>
      <trkpt lat="43.46832" lon="6.89634">
        <ele>167</ele>
        <time>2021-04-11T13:52:44+02:00</time>
      </trkpt>
      <trkpt lat="43.46829" lon="6.89681">
        <ele>162</ele>
        <time>2021-04-11T13:52:49+02:00</time>
      </trkpt>
      <trkpt lat="43.46799" lon="6.89737">
        <ele>172</ele>
        <time>2021-04-11T13:52:54+02:00</time>
      </trkpt>
      <trkpt lat="43.46787" lon="6.89775">
        <ele>176</ele>
        <time>2021-04-11T13:52:59+02:00</time>
      </trkpt>
      <trkpt lat="43.46787" lon="6.89833">
        <ele>180</ele>
        <time>2021-04-11T13:53:04+02:00</time>
      </trkpt>
      <trkpt lat="43.46779" lon="6.89889">
        <ele>183</ele>
        <time>2021-04-11T13:53:09+02:00</time>
      </trkpt>
      <trkpt lat="43.46793" lon="6.89947">
        <ele>187</ele>
        <time>2021-04-11T13:53:14+02:00</time>
      </trkpt>
      <trkpt lat="43.46803" lon="6.90007">
        <ele>191</ele>
        <time>2021-04-11T13:53:19+02:00</time>
      </trkpt>
      <trkpt lat="43.46792" lon="6.90065">
        <ele>198</ele>
        <time>2021-04-11T13:53:24+02:00</time>
      </trkpt>
      <trkpt lat="43.46784" lon="6.90114">
        <ele>203</ele>
        <time>2021-04-11T13:53:29+02:00</time>
      </trkpt>
      <trkpt lat="43.46779" lon="6.90174">
        <ele>209</ele>
        <time>2021-04-11T13:53:34+02:00</time>
      </trkpt>
      <trkpt lat="43.46774" lon="6.90224">
        <ele>213</ele>
        <time>2021-04-11T13:53:39+02:00</time>
      </trkpt>
      <trkpt lat="43.4679" lon="6.90271">
        <ele>215</ele>
        <time>2021-04-11T13:53:44+02:00</time>
      </trkpt>
      <trkpt lat="43.46793" lon="6.90329">
        <ele>218</ele>
        <time>2021-04-11T13:53:49+02:00</time>
      </trkpt>
      <trkpt lat="43.46789" lon="6.90385">
        <ele>221</ele>
        <time>2021-04-11T13:53:54+02:00</time>
      </trkpt>
      <trkpt lat="43.46773" lon="6.9044">
        <ele>225</ele>
        <time>2021-04-11T13:53:59+02:00</time>
      </trkpt>
      <trkpt lat="43.46768" lon="6.9049">
        <ele>228</ele>
        <time>2021-04-11T13:54:04+02:00</time>
      </trkpt>
      <trkpt lat="43.46784" lon="6.90535">
        <ele>231</ele>
        <time>2021-04-11T13:54:09+02:00</time>
      </trkpt>
      <trkpt lat="43.46818" lon="6.90565">
        <ele>232</ele>
        <time>2021-04-11T13:54:14+02:00</time>
      </trkpt>
      <trkpt lat="43.46848" lon="6.90591">
        <ele>234</ele>
        <time>2021-04-11T13:54:19+02:00</time>
      </trkpt>
      <trkpt lat="43.46848" lon="6.90595">
        <ele>236.4</ele>
      </trkpt>
      <trkpt lat="43.46856" lon="6.90605">
        <ele>236.4</ele>
      </trkpt>
      <trkpt lat="43.46871" lon="6.90625">
        <ele>236.7</ele>
      </trkpt>
      <trkpt lat="43.4689" lon="6.90686">
        <ele>246.3</ele>
      </trkpt>
      <trkpt lat="43.46895" lon="6.90705">
        <ele>249.8</ele>
      </trkpt>
      <trkpt lat="43.46922" lon="6.90755">
        <ele>257.2</ele>
      </trkpt>
      <trkpt lat="43.46928" lon="6.90766">
        <ele>258.7</ele>
      </trkpt>
      <trkpt lat="43.46935" lon="6.90785">
        <ele>261.6</ele>
      </trkpt>
      <trkpt lat="43.46954" lon="6.9081">
        <ele>263.8</ele>
      </trkpt>
      <trkpt lat="43.46954" lon="6.9081">
        <ele>263.8</ele>
      </trkpt>
      <trkpt lat="43.47003" lon="6.90877">
        <ele>262.4</ele>
      </trkpt>
      <trkpt lat="43.47007" lon="6.9087">
        <ele>263.4</ele>
      </trkpt>
    </trkseg>
  </trk>
</gpx>